Time;durP1;ratioP1;P1;durP2;ratioP2;P2;SDS_P1;SDS_P2;PMS_P1;PMS_P2;Temp;Humidity;BMP_temperature;BMP_pressure;BME280_temperature;BME280_humidity;BME280_pressure;Samples;Min_cycle;Max_cycle;Signal;HPM_P1;HPM_P2
2022/04/15 00:00:38;;;;;;;382.08;83.60;;;11.70;99.90;;;;;;5052315;28;20021;-74
2022/04/15 00:03:05;;;;;;;131.68;58.47;;;11.60;99.90;;;;;;5053772;28;20028;-74
2022/04/15 00:05:36;;;;;;;102.03;49.97;;;11.50;99.90;;;;;;5053608;28;20565;-74
2022/04/15 00:08:07;;;;;;;246.07;64.38;;;11.50;99.90;;;;;;5053943;28;20033;-74
2022/04/15 00:10:34;;;;;;;414.90;63.08;;;11.40;99.90;;;;;;5053365;28;20017;-74
2022/04/15 00:13:01;;;;;;;878.88;109.88;;;11.50;99.90;;;;;;5053376;28;20061;-74
2022/04/15 00:15:27;;;;;;;574.83;78.43;;;11.50;99.90;;;;;;5053099;28;20079;-74
2022/04/15 00:17:53;;;;;;;330.33;67.88;;;11.40;99.90;;;;;;5053250;28;20029;-74
2022/04/15 00:20:19;;;;;;;145.27;55.83;;;11.40;99.90;;;;;;5054883;28;20081;-74
2022/04/15 00:22:45;;;;;;;324.10;63.80;;;11.40;99.90;;;;;;5058889;28;20040;-74
2022/04/15 00:25:10;;;;;;;1097.65;136.70;;;11.50;99.90;;;;;;5059714;28;20146;-74
2022/04/15 00:27:40;;;;;;;584.38;72.22;;;11.30;99.90;;;;;;5069890;28;20033;-74
2022/04/15 00:30:07;;;;;;;351.20;65.40;;;11.20;99.90;;;;;;5051837;28;20036;-74
2022/04/15 00:32:33;;;;;;;652.63;72.70;;;11.30;99.90;;;;;;5052186;28;20506;-75
2022/04/15 00:34:59;;;;;;;563.63;72.45;;;11.30;99.90;;;;;;5061127;28;20033;-75
2022/04/15 00:37:24;;;;;;;242.38;49.33;;;11.40;99.90;;;;;;5061382;28;20025;-75
2022/04/15 00:39:50;;;;;;;411.63;59.85;;;11.30;99.90;;;;;;5051835;28;20609;-75
2022/04/15 00:42:16;;;;;;;194.77;54.40;;;11.30;99.90;;;;;;5052821;28;20025;-75
2022/04/15 00:44:42;;;;;;;174.05;49.88;;;11.30;99.90;;;;;;5053013;28;20039;-75
2022/04/15 00:47:18;;;;;;;246.18;53.75;;;11.20;99.90;;;;;;5052805;28;20033;-75
2022/04/15 00:49:44;;;;;;;114.63;46.70;;;11.10;99.90;;;;;;5052942;28;20025;-75
2022/04/15 00:52:12;;;;;;;416.42;61.90;;;11.00;99.90;;;;;;5051364;28;20024;-75
2022/04/15 00:54:39;;;;;;;226.18;59.58;;;11.10;99.90;;;;;;5052649;28;20029;-75
2022/04/15 00:57:07;;;;;;;397.60;78.72;;;11.10;99.90;;;;;;5052591;28;20013;-75
2022/04/15 00:59:34;;;;;;;78.80;47.80;;;11.10;99.90;;;;;;5052734;28;20029;-75
2022/04/15 01:02:03;;;;;;;66.25;44.40;;;11.10;99.90;;;;;;5052466;28;20017;-75
2022/04/15 01:04:30;;;;;;;63.40;45.58;;;11.10;99.90;;;;;;5052321;28;20123;-75
2022/04/15 01:06:57;;;;;;;68.38;45.75;;;11.10;99.90;;;;;;5063355;28;20103;-75
2022/04/15 01:09:25;;;;;;;51.42;41.75;;;11.10;99.90;;;;;;5059256;28;20056;-74
2022/04/15 01:11:52;;;;;;;49.63;39.97;;;11.10;99.90;;;;;;5049958;28;20049;-75
2022/04/15 01:14:18;;;;;;;51.63;39.83;;;11.10;99.90;;;;;;5053004;28;20079;-74
2022/04/15 01:16:44;;;;;;;46.45;38.88;;;11.10;99.90;;;;;;5048553;28;20025;-75
2022/04/15 01:19:09;;;;;;;47.58;38.80;;;11.00;99.90;;;;;;5052648;28;20360;-74
2022/04/15 01:21:38;;;;;;;57.22;41.97;;;11.00;99.90;;;;;;5051208;28;20032;-74
2022/04/15 01:24:04;;;;;;;76.43;46.10;;;11.00;99.90;;;;;;5060711;28;20043;-74
2022/04/15 01:26:30;;;;;;;62.30;40.65;;;11.00;99.90;;;;;;5052388;28;20021;-74
2022/04/15 01:28:57;;;;;;;179.30;52.92;;;11.10;99.90;;;;;;5051207;28;20029;-74
2022/04/15 01:31:25;;;;;;;623.90;83.22;;;11.30;99.90;;;;;;5052306;28;20029;-74
2022/04/15 01:33:50;;;;;;;577.42;71.68;;;11.20;99.90;;;;;;5052247;28;20393;-74
2022/04/15 01:36:16;;;;;;;543.58;91.40;;;11.30;99.90;;;;;;5052294;28;20032;-74
2022/04/15 01:38:41;;;;;;;457.67;78.80;;;11.20;99.90;;;;;;5052044;28;20075;-74
2022/04/15 01:41:07;;;;;;;517.80;82.93;;;10.90;99.90;;;;;;5050418;28;20101;-73
2022/04/15 01:43:32;;;;;;;677.00;107.55;;;10.90;99.90;;;;;;5050555;28;20021;-73
2022/04/15 01:45:58;;;;;;;163.95;53.78;;;10.80;99.90;;;;;;5050663;28;20048;-73
2022/04/15 01:48:23;;;;;;;264.77;59.95;;;10.90;99.90;;;;;;5051541;28;20572;-72
2022/04/15 01:50:49;;;;;;;804.85;113.03;;;11.00;99.90;;;;;;5051637;28;20029;-74
2022/04/15 01:53:15;;;;;;;906.50;112.22;;;10.80;99.90;;;;;;5047868;28;20090;-75
2022/04/15 01:55:40;;;;;;;566.63;95.47;;;10.60;99.90;;;;;;5045390;28;20025;-75
2022/04/15 01:58:05;;;;;;;529.75;70.38;;;10.60;99.90;;;;;;5052128;28;20032;-74
2022/04/15 02:00:31;;;;;;;374.05;73.00;;;10.60;99.90;;;;;;5051582;28;20029;-74
2022/04/15 02:02:57;;;;;;;800.78;117.47;;;10.70;99.90;;;;;;5050460;28;20391;-74
2022/04/15 02:05:22;;;;;;;553.42;95.32;;;10.80;99.90;;;;;;5050426;28;20029;-74
2022/04/15 02:07:47;;;;;;;562.38;86.50;;;10.80;99.90;;;;;;5051563;28;20090;-74
2022/04/15 02:10:13;;;;;;;696.92;100.90;;;10.90;99.90;;;;;;5051356;28;20465;-74
2022/04/15 02:12:39;;;;;;;562.90;85.38;;;10.90;99.90;;;;;;5050272;28;20029;-74
2022/04/15 02:15:05;;;;;;;297.08;59.85;;;10.80;99.90;;;;;;5050004;28;20032;-73
2022/04/15 02:17:30;;;;;;;758.95;101.72;;;10.80;99.90;;;;;;5051427;28;20025;-74
2022/04/15 02:19:56;;;;;;;202.85;56.63;;;10.80;99.90;;;;;;5051468;28;20028;-73
2022/04/15 02:22:21;;;;;;;193.50;55.65;;;10.90;99.90;;;;;;5051267;28;20070;-74
2022/04/15 02:24:47;;;;;;;1033.40;140.55;;;10.90;99.90;;;;;;5051377;28;20502;-73
2022/04/15 02:27:12;;;;;;;374.17;74.90;;;10.90;99.90;;;;;;5051357;28;20033;-73
2022/04/15 02:29:38;;;;;;;626.42;78.63;;;10.90;99.90;;;;;;5051469;28;20056;-73
2022/04/15 02:32:04;;;;;;;721.55;95.07;;;11.00;99.90;;;;;;5051323;28;20021;-73
2022/04/15 02:34:30;;;;;;;368.00;80.55;;;11.00;99.90;;;;;;5050095;28;20036;-74
2022/04/15 02:36:55;;;;;;;470.02;83.03;;;11.00;99.90;;;;;;5051355;28;20029;-73
2022/04/15 02:39:21;;;;;;;445.27;85.63;;;10.90;99.90;;;;;;5051360;28;20025;-73
2022/04/15 02:41:46;;;;;;;353.15;75.75;;;10.80;99.90;;;;;;5050896;28;20017;-74
2022/04/15 02:44:12;;;;;;;341.33;72.40;;;10.90;99.90;;;;;;5050050;28;20387;-74
2022/04/15 02:46:38;;;;;;;429.02;77.78;;;10.80;99.90;;;;;;5051141;28;20390;-73
2022/04/15 02:49:03;;;;;;;485.05;86.90;;;10.80;99.90;;;;;;5034580;28;20022;-73
2022/04/15 02:51:30;;;;;;;312.42;63.63;;;10.80;99.90;;;;;;5043551;28;20029;-73
2022/04/15 02:53:55;;;;;;;433.08;82.00;;;10.70;99.90;;;;;;5051231;28;20025;-72
2022/04/15 02:56:21;;;;;;;357.67;61.58;;;10.50;99.90;;;;;;5053773;28;20032;-73
2022/04/15 02:58:46;;;;;;;461.13;82.82;;;10.60;99.90;;;;;;5055080;28;20017;-73
2022/04/15 03:01:12;;;;;;;530.33;73.50;;;10.60;99.90;;;;;;5050325;28;20041;-74
2022/04/15 03:03:37;;;;;;;273.83;60.47;;;10.50;99.90;;;;;;5055979;28;20040;-74
2022/04/15 03:06:03;;;;;;;722.35;98.82;;;10.60;99.90;;;;;;5053595;28;20025;-74
2022/04/15 03:08:30;;;;;;;573.67;87.38;;;10.70;99.90;;;;;;5054707;28;20024;-74
2022/04/15 03:10:57;;;;;;;342.00;72.68;;;10.70;99.90;;;;;;5054675;28;20048;-73
2022/04/15 03:13:22;;;;;;;578.30;93.05;;;10.70;99.90;;;;;;5054742;28;20495;-73
2022/04/15 03:15:48;;;;;;;390.95;68.80;;;10.70;99.90;;;;;;5054528;28;20039;-74
2022/04/15 03:18:14;;;;;;;821.75;94.63;;;10.70;99.90;;;;;;5054700;28;20033;-73
2022/04/15 03:20:40;;;;;;;1149.97;129.48;;;10.70;99.90;;;;;;5054421;28;20386;-73
2022/04/15 03:23:06;;;;;;;427.38;76.20;;;10.70;99.90;;;;;;5054541;28;20410;-73
2022/04/15 03:25:31;;;;;;;860.33;119.70;;;10.70;99.90;;;;;;5054459;28;20566;-73
2022/04/15 03:27:57;;;;;;;752.38;104.03;;;10.60;99.90;;;;;;5053297;28;20021;-74
2022/04/15 03:30:23;;;;;;;507.02;71.07;;;10.50;99.90;;;;;;5053013;28;20024;-73
2022/04/15 03:32:50;;;;;;;1006.22;138.18;;;10.50;99.90;;;;;;5054442;28;20043;-74
2022/04/15 03:35:20;;;;;;;1010.53;128.60;;;10.60;99.90;;;;;;5054305;28;20072;-74
2022/04/15 03:37:46;;;;;;;657.30;102.55;;;10.50;99.90;;;;;;5053043;28;20037;-73
2022/04/15 03:40:11;;;;;;;650.83;92.15;;;10.50;99.90;;;;;;5043000;28;20112;-73
2022/04/15 03:42:44;;;;;;;399.58;72.70;;;10.40;99.90;;;;;;5060617;28;20100;-73
2022/04/15 03:45:11;;;;;;;420.17;69.82;;;10.50;99.90;;;;;;5052848;28;20028;-72
2022/04/15 03:47:37;;;;;;;412.27;55.67;;;10.60;99.90;;;;;;5054178;28;20104;-72
2022/04/15 03:50:03;;;;;;;305.75;58.70;;;10.60;99.90;;;;;;5054170;28;20029;-72
2022/04/15 03:52:28;;;;;;;594.10;86.38;;;10.60;99.90;;;;;;5053774;28;20060;-72
2022/04/15 03:54:53;;;;;;;441.88;80.07;;;10.50;99.90;;;;;;5057033;28;20110;-72
2022/04/15 03:57:19;;;;;;;680.00;97.05;;;10.60;99.90;;;;;;5065745;28;20081;-72
2022/04/15 03:59:44;;;;;;;538.45;87.57;;;10.50;99.90;;;;;;5053905;28;20044;-72
2022/04/15 04:02:10;;;;;;;536.88;86.82;;;10.50;99.90;;;;;;5053537;28;20056;-73
2022/04/15 04:04:35;;;;;;;390.25;67.28;;;10.50;99.90;;;;;;5053707;28;20037;-74
2022/04/15 04:07:01;;;;;;;405.73;63.35;;;10.50;99.90;;;;;;5052459;28;20025;-74
2022/04/15 04:09:26;;;;;;;485.80;81.60;;;10.50;99.90;;;;;;5061935;28;20033;-73
2022/04/15 04:11:53;;;;;;;669.40;105.03;;;10.40;99.90;;;;;;5051818;28;20028;-73
2022/04/15 04:14:20;;;;;;;762.13;106.95;;;10.30;99.90;;;;;;5053531;28;20387;-72
2022/04/15 04:16:45;;;;;;;249.23;53.53;;;10.20;99.90;;;;;;5053281;28;20024;-70
2022/04/15 04:19:11;;;;;;;1014.10;115.28;;;10.20;99.90;;;;;;5052961;28;20475;-74
2022/04/15 04:21:36;;;;;;;911.05;116.88;;;10.20;99.90;;;;;;5045363;28;20021;-74
2022/04/15 04:24:02;;;;;;;330.83;62.30;;;10.10;99.90;;;;;;5063514;28;20070;-73
2022/04/15 04:26:28;;;;;;;790.13;95.53;;;10.10;99.90;;;;;;5052890;28;20858;-74
2022/04/15 04:28:53;;;;;;;801.63;95.22;;;10.10;99.90;;;;;;5052985;28;20028;-74
2022/04/15 04:31:20;;;;;;;244.57;44.90;;;10.00;99.90;;;;;;5051764;28;20394;-74
2022/04/15 04:33:46;;;;;;;711.15;92.47;;;10.00;99.90;;;;;;5053212;28;20052;-73
2022/04/15 04:36:11;;;;;;;326.48;47.88;;;10.00;99.90;;;;;;5053081;28;20067;-74
2022/04/15 04:38:37;;;;;;;517.90;63.17;;;10.10;99.90;;;;;;5053177;28;20025;-73
2022/04/15 04:41:02;;;;;;;289.70;50.22;;;10.20;99.90;;;;;;5051779;28;20411;-75
2022/04/15 04:43:29;;;;;;;386.63;49.42;;;10.30;99.90;;;;;;5052698;28;20048;-74
2022/04/15 04:45:55;;;;;;;186.02;37.72;;;10.40;99.90;;;;;;5049791;28;20024;-73
2022/04/15 04:48:21;;;;;;;380.63;43.67;;;10.40;99.90;;;;;;5052229;28;20119;-74
2022/04/15 04:50:47;;;;;;;211.45;43.40;;;10.30;99.90;;;;;;5052579;28;20450;-73
2022/04/15 04:53:12;;;;;;;391.00;53.22;;;10.30;99.90;;;;;;5051662;28;20026;-72
2022/04/15 04:55:38;;;;;;;297.70;50.67;;;10.20;99.90;;;;;;5052665;28;20474;-72
2022/04/15 04:58:04;;;;;;;312.08;43.20;;;10.30;99.90;;;;;;5050245;28;20108;-72
2022/04/15 05:00:29;;;;;;;554.72;70.53;;;10.40;99.90;;;;;;5054517;28;20103;-74
2022/04/15 05:02:55;;;;;;;466.05;67.10;;;10.40;99.90;;;;;;5059520;28;20021;-74
2022/04/15 05:05:20;;;;;;;395.63;54.00;;;10.40;99.90;;;;;;5051231;28;20033;-72
2022/04/15 05:07:46;;;;;;;535.35;72.32;;;10.40;99.90;;;;;;5052626;28;20410;-74
2022/04/15 05:10:11;;;;;;;517.50;69.70;;;10.20;99.90;;;;;;5052567;28;20037;-74
2022/04/15 05:12:37;;;;;;;705.75;73.07;;;10.30;99.90;;;;;;5052454;28;20028;-74
2022/04/15 05:15:03;;;;;;;886.05;95.22;;;10.40;99.90;;;;;;5052301;28;20029;-74
2022/04/15 05:17:28;;;;;;;763.83;89.20;;;10.30;99.90;;;;;;5050884;28;20360;-74
2022/04/15 05:19:54;;;;;;;903.28;119.82;;;10.20;99.90;;;;;;5051163;28;20029;-73
2022/04/15 05:22:21;;;;;;;327.23;65.28;;;10.10;99.90;;;;;;5050959;28;20025;-73
2022/04/15 05:24:47;;;;;;;330.17;81.70;;;10.10;99.90;;;;;;5051094;28;20035;-73
2022/04/15 05:27:12;;;;;;;681.30;94.78;;;10.10;99.90;;;;;;5051031;28;20463;-73
2022/04/15 05:29:38;;;;;;;697.50;97.70;;;10.00;99.90;;;;;;5052334;28;20029;-73
2022/04/15 05:32:04;;;;;;;314.13;53.53;;;9.90;99.90;;;;;;5052225;28;20029;-73
2022/04/15 05:34:29;;;;;;;652.22;84.00;;;9.90;99.90;;;;;;5051955;28;20063;-73
2022/04/15 05:36:55;;;;;;;237.30;43.72;;;9.90;99.90;;;;;;5050790;28;20387;-74
2022/04/15 05:39:20;;;;;;;188.38;37.15;;;9.80;99.90;;;;;;5050847;28;20513;-73
2022/04/15 05:41:46;;;;;;;602.60;68.88;;;10.00;99.90;;;;;;5051872;28;20098;-73
2022/04/15 05:44:13;;;;;;;258.45;48.28;;;10.10;99.90;;;;;;5051890;28;20096;-73
2022/04/15 05:46:42;;;;;;;158.43;38.42;;;10.10;99.90;;;;;;5051656;28;20017;-74
2022/04/15 05:49:13;;;;;;;440.52;46.13;;;10.20;99.90;;;;;;5059285;28;20501;-73
2022/04/15 05:51:39;;;;;;;264.58;38.72;;;10.30;99.90;;;;;;5057936;28;20031;-73
2022/04/15 05:54:05;;;;;;;175.27;35.42;;;10.30;99.90;;;;;;5063420;28;20262;-73
2022/04/15 05:56:30;;;;;;;250.77;37.90;;;10.50;99.90;;;;;;5050341;28;20600;-73
2022/04/15 05:58:56;;;;;;;344.38;47.22;;;10.50;99.90;;;;;;5061996;28;20082;-73
2022/04/15 06:01:22;;;;;;;172.05;35.28;;;10.50;99.90;;;;;;5055494;28;20096;-73
2022/04/15 06:03:48;;;;;;;153.02;34.28;;;10.50;99.90;;;;;;5051656;28;20052;-73
2022/04/15 06:06:13;;;;;;;408.00;50.35;;;10.70;99.90;;;;;;5051650;28;20028;-73
2022/04/15 06:08:39;;;;;;;135.50;31.98;;;10.70;99.90;;;;;;5051653;28;20433;-73
2022/04/15 06:11:04;;;;;;;323.13;44.28;;;10.80;99.90;;;;;;5051458;28;20172;-73
2022/04/15 06:13:31;;;;;;;122.28;29.98;;;10.90;99.90;;;;;;5051569;28;20410;-73
2022/04/15 06:15:57;;;;;;;189.68;33.65;;;11.00;99.90;;;;;;5040361;28;20033;-73
2022/04/15 06:18:24;;;;;;;245.27;43.22;;;11.10;99.90;;;;;;5058858;28;20040;-73
2022/04/15 06:20:51;;;;;;;427.23;59.00;;;11.10;99.90;;;;;;5051286;28;20017;-72
2022/04/15 06:23:18;;;;;;;581.33;53.35;;;10.70;99.90;;;;;;5051511;28;20455;-73
2022/04/15 06:25:45;;;;;;;555.30;61.08;;;10.50;99.90;;;;;;5051663;28;20029;-73
2022/04/15 06:28:11;;;;;;;196.20;35.50;;;10.60;99.90;;;;;;5051456;28;20028;-73
2022/04/15 06:30:37;;;;;;;107.18;30.67;;;10.40;99.90;;;;;;5054148;28;20029;-73
2022/04/15 06:33:08;;;;;;;164.98;33.08;;;10.60;99.90;;;;;;5055874;28;20605;-74
2022/04/15 06:35:34;;;;;;;206.75;41.20;;;10.70;99.90;;;;;;5055332;28;20070;-73
2022/04/15 06:38:00;;;;;;;276.30;50.40;;;10.90;99.90;;;;;;5053952;28;20021;-74
2022/04/15 06:40:26;;;;;;;75.32;29.85;;;10.70;99.90;;;;;;5058408;28;20040;-72
2022/04/15 06:42:51;;;;;;;142.45;33.20;;;11.00;99.90;;;;;;5055419;28;20025;-75
2022/04/15 06:45:17;;;;;;;256.63;43.85;;;11.20;99.90;;;;;;5054737;28;20020;-74
2022/04/15 06:47:42;;;;;;;314.40;40.30;;;11.10;99.90;;;;;;5055220;28;20035;-74
2022/04/15 06:50:08;;;;;;;161.05;35.97;;;11.00;99.90;;;;;;5053888;28;20112;-74
2022/04/15 06:52:34;;;;;;;152.98;30.55;;;11.10;99.90;;;;;;5065844;28;20024;-74
2022/04/15 06:55:00;;;;;;;333.13;46.38;;;11.00;99.90;;;;;;5060124;28;20036;-73
2022/04/15 06:57:25;;;;;;;209.77;30.10;;;10.90;99.90;;;;;;5054907;28;20459;-74
2022/04/15 06:59:51;;;;;;;227.32;38.38;;;10.80;99.90;;;;;;5054965;28;20029;-75
2022/04/15 07:02:16;;;;;;;76.65;31.40;;;10.90;99.90;;;;;;5054732;28;20100;-74
2022/04/15 07:04:42;;;;;;;65.90;30.75;;;10.80;99.90;;;;;;5054997;28;20033;-74
2022/04/15 07:07:07;;;;;;;59.10;27.20;;;10.80;99.90;;;;;;5053504;28;20099;-74
2022/04/15 07:09:33;;;;;;;44.85;25.45;;;10.90;99.90;;;;;;5051368;28;20032;-74
2022/04/15 07:11:58;;;;;;;31.85;23.67;;;11.00;99.90;;;;;;5062535;28;20478;-74
2022/04/15 07:14:24;;;;;;;54.67;27.42;;;11.10;99.90;;;;;;5058473;28;20021;-74
2022/04/15 07:16:50;;;;;;;125.80;34.30;;;11.00;99.90;;;;;;5054606;28;20037;-73
2022/04/15 07:19:15;;;;;;;52.00;29.58;;;10.80;99.90;;;;;;5059377;28;20048;-73
2022/04/15 07:21:43;;;;;;;40.60;26.42;;;10.80;99.90;;;;;;5054487;28;20029;-74
2022/04/15 07:24:08;;;;;;;51.60;30.50;;;10.90;99.90;;;;;;5053076;28;20025;-74
2022/04/15 07:26:34;;;;;;;35.97;25.15;;;10.90;99.90;;;;;;5061018;28;20047;-73
2022/04/15 07:29:00;;;;;;;57.75;33.38;;;11.00;99.90;;;;;;5059519;28;20027;-72
2022/04/15 07:31:25;;;;;;;52.25;31.48;;;11.30;99.90;;;;;;5065681;28;20048;-73
2022/04/15 07:33:51;;;;;;;42.25;24.33;;;11.70;99.90;;;;;;5054406;28;20032;-73
2022/04/15 07:39:06;;;;;;;35.97;26.80;;;11.50;99.90;;;;;;5062810;28;20026;-73
2022/04/15 07:41:36;;;;;;;30.70;23.60;;;11.40;99.90;;;;;;5060759;28;20029;-72
2022/04/15 07:44:10;;;;;;;32.45;23.90;;;11.50;99.90;;;;;;5055642;28;20029;-72
2022/04/15 07:46:37;;;;;;;33.35;25.23;;;11.60;99.90;;;;;;5064433;28;20581;-72
2022/04/15 07:49:04;;;;;;;29.55;23.00;;;11.50;99.90;;;;;;5054083;28;20029;-73
2022/04/15 07:51:30;;;;;;;32.90;25.60;;;11.40;99.90;;;;;;5053841;28;20021;-73
2022/04/15 07:53:56;;;;;;;36.45;26.48;;;11.70;99.90;;;;;;5053978;28;20104;-75
2022/04/15 07:56:21;;;;;;;28.00;23.58;;;11.70;99.90;;;;;;5053781;28;20104;-76
2022/04/15 07:58:47;;;;;;;31.08;24.90;;;11.90;99.90;;;;;;5053983;28;20022;-75
2022/04/15 08:01:13;;;;;;;34.28;26.08;;;11.80;99.90;;;;;;5052493;28;20021;-77
2022/04/15 08:03:39;;;;;;;30.17;24.80;;;11.80;99.90;;;;;;5052664;28;20017;-77
2022/04/15 08:06:05;;;;;;;29.48;23.20;;;11.90;99.90;;;;;;5053961;28;20059;-77
2022/04/15 08:08:31;;;;;;;27.00;22.00;;;12.00;99.90;;;;;;5052822;28;20060;-77
2022/04/15 08:10:57;;;;;;;29.48;22.48;;;12.20;99.90;;;;;;5052977;28;20079;-77
2022/04/15 08:13:23;;;;;;;25.95;22.92;;;12.50;99.90;;;;;;5053110;28;20078;-77
2022/04/15 08:15:53;;;;;;;25.23;21.55;;;12.60;99.90;;;;;;5052729;28;20025;-76
2022/04/15 08:18:20;;;;;;;28.52;21.92;;;12.60;99.90;;;;;;5060116;28;20096;-76
2022/04/15 08:20:45;;;;;;;27.50;20.15;;;12.50;99.90;;;;;;5053485;28;20116;-77
2022/04/15 08:23:11;;;;;;;24.42;21.75;;;12.50;99.90;;;;;;5052386;28;20559;-78
2022/04/15 08:25:36;;;;;;;24.95;21.08;;;12.60;99.90;;;;;;5052262;28;20021;-74
2022/04/15 08:28:03;;;;;;;24.45;21.13;;;12.60;99.90;;;;;;5053526;28;20061;-73
2022/04/15 08:30:30;;;;;;;23.95;20.95;;;12.60;99.90;;;;;;5053338;28;20394;-75
2022/04/15 08:32:57;;;;;;;24.70;21.77;;;12.50;99.90;;;;;;5053490;28;20431;-73
2022/04/15 08:35:23;;;;;;;27.38;21.35;;;12.60;99.90;;;;;;5053243;28;20028;-73
2022/04/15 08:37:48;;;;;;;26.70;21.58;;;12.70;99.90;;;;;;5053663;28;20025;-73
2022/04/15 08:40:14;;;;;;;22.70;19.27;;;12.40;99.90;;;;;;5053189;28;20047;-73
2022/04/15 08:42:41;;;;;;;24.40;20.63;;;12.50;99.90;;;;;;5053221;28;20387;-73
2022/04/15 08:45:09;;;;;;;22.20;19.83;;;12.70;99.90;;;;;;5053107;28;20025;-73
2022/04/15 08:47:36;;;;;;;23.75;21.00;;;12.50;99.90;;;;;;5053097;28;20021;-72
2022/04/15 08:50:04;;;;;;;22.35;18.75;;;12.40;99.90;;;;;;5051660;28;20025;-73
2022/04/15 08:52:29;;;;;;;24.38;19.60;;;12.70;99.90;;;;;;5052150;28;20033;-72
2022/04/15 08:54:55;;;;;;;24.25;19.42;;;13.10;99.90;;;;;;5052832;28;20497;-73
2022/04/15 08:57:21;;;;;;;21.70;18.35;;;13.00;99.90;;;;;;5052992;28;20036;-73
2022/04/15 08:59:47;;;;;;;20.42;18.23;;;13.10;99.90;;;;;;5052826;28;20048;-73
2022/04/15 09:02:14;;;;;;;24.40;18.88;;;13.10;99.90;;;;;;5044750;28;20103;-73
2022/04/15 09:04:39;;;;;;;21.67;18.40;;;12.90;99.90;;;;;;5053356;28;20490;-74
2022/04/15 09:07:05;;;;;;;21.40;17.55;;;13.20;99.90;;;;;;5055950;28;20029;-74
2022/04/15 09:09:32;;;;;;;22.98;17.83;;;13.30;99.90;;;;;;5058464;28;20051;-74
2022/04/15 09:12:00;;;;;;;21.10;17.45;;;13.60;99.90;;;;;;5054779;28;20524;-74
2022/04/15 09:14:28;;;;;;;19.77;16.90;;;13.80;99.90;;;;;;5053822;28;20021;-74
2022/04/15 09:16:54;;;;;;;18.75;15.95;;;13.80;99.90;;;;;;5052379;28;20033;-73
2022/04/15 09:19:20;;;;;;;17.45;14.93;;;13.80;99.90;;;;;;5052220;28;20379;-74
2022/04/15 09:21:56;;;;;;;17.92;15.57;;;13.90;99.90;;;;;;5058585;28;20471;-73
2022/04/15 09:24:26;;;;;;;16.92;13.88;;;14.30;99.90;;;;;;5055581;28;20399;-74
2022/04/15 09:26:53;;;;;;;17.52;14.30;;;14.00;99.90;;;;;;5052271;28;20475;-74
2022/04/15 09:29:21;;;;;;;15.30;13.50;;;13.90;99.90;;;;;;5064157;28;20017;-74
2022/04/15 09:31:46;;;;;;;16.83;12.65;;;13.90;99.90;;;;;;5068741;28;20021;-73
2022/04/15 09:34:12;;;;;;;14.60;12.98;;;14.20;99.90;;;;;;5054898;28;20029;-73
2022/04/15 09:36:39;;;;;;;15.93;12.18;;;14.40;99.90;;;;;;5052138;28;20033;-73
2022/04/15 09:39:11;;;;;;;16.08;12.93;;;14.40;99.90;;;;;;5052498;28;20422;-73
2022/04/15 09:41:38;;;;;;;17.23;13.88;;;14.10;99.90;;;;;;5050734;28;20453;-73
2022/04/15 09:44:05;;;;;;;14.73;13.13;;;14.20;99.90;;;;;;5052008;28;20397;-73
2022/04/15 09:46:31;;;;;;;15.60;13.18;;;14.70;99.90;;;;;;5051953;28;20409;-73
2022/04/15 09:49:10;;;;;;;15.20;13.40;;;14.40;99.90;;;;;;5052072;28;20095;-73
2022/04/15 09:51:44;;;;;;;15.38;12.98;;;14.20;99.90;;;;;;5052098;28;20118;-73
2022/04/15 09:54:25;;;;;;;15.75;12.82;;;14.10;99.90;;;;;;5039608;28;20029;-73
2022/04/15 09:56:58;;;;;;;16.00;13.30;;;14.40;99.90;;;;;;5055633;28;20039;-73
2022/04/15 09:59:26;;;;;;;14.10;12.18;;;14.20;99.90;;;;;;5050496;28;20032;-74
2022/04/15 10:01:57;;;;;;;12.20;9.15;;;14.30;99.90;;;;;;5055359;28;20105;-74
2022/04/15 10:04:24;;;;;;;10.68;8.20;;;14.30;99.90;;;;;;5050925;28;20427;-74
2022/04/15 10:06:51;;;;;;;9.10;6.60;;;14.30;99.90;;;;;;5050283;28;20511;-74
2022/04/15 10:09:17;;;;;;;9.27;6.65;;;14.30;99.90;;;;;;5051268;28;20068;-73
2022/04/15 10:11:45;;;;;;;9.70;7.03;;;14.50;99.90;;;;;;5049912;28;20036;-74
2022/04/15 10:14:12;;;;;;;9.13;6.47;;;14.70;99.90;;;;;;5050951;28;20049;-74
2022/04/15 10:16:39;;;;;;;8.50;6.82;;;15.10;99.90;;;;;;5050680;28;20053;-73
2022/04/15 10:19:05;;;;;;;12.02;7.65;;;14.90;99.90;;;;;;5051612;28;20483;-74
2022/04/15 10:21:34;;;;;;;7.88;6.00;;;15.00;99.90;;;;;;5048582;28;20113;-74
2022/04/15 10:24:03;;;;;;;6.35;5.47;;;15.00;99.90;;;;;;5051151;28;20029;-74
2022/04/15 10:26:34;;;;;;;6.65;5.07;;;15.60;99.90;;;;;;5038212;28;20087;-74
2022/04/15 10:29:03;;;;;;;7.50;5.50;;;15.60;99.90;;;;;;5053672;28;20035;-74
2022/04/15 10:31:54;;;;;;;9.40;6.55;;;15.50;99.90;;;;;;5052616;28;20082;-74
2022/04/15 10:34:21;;;;;;;7.20;6.13;;;15.00;99.90;;;;;;5052900;28;20399;-74
2022/04/15 10:36:47;;;;;;;9.65;6.20;;;15.30;99.90;;;;;;5062862;28;20033;-74
2022/04/15 10:39:21;;;;;;;7.18;5.82;;;15.20;99.90;;;;;;5053124;28;20021;-73
2022/04/15 10:41:51;;;;;;;7.47;5.68;;;15.40;99.90;;;;;;5049856;28;20104;-74
2022/04/15 10:44:38;;;;;;;9.10;5.70;;;15.40;99.90;;;;;;5051307;28;20064;-74
2022/04/15 10:47:19;;;;;;;8.43;5.57;;;15.40;99.90;;;;;;5051230;28;20025;-74
2022/04/15 10:50:06;;;;;;;6.15;5.13;;;15.50;99.90;;;;;;5051394;28;20021;-74
2022/04/15 10:52:34;;;;;;;8.02;5.22;;;15.60;99.90;;;;;;5037528;28;20044;-74
2022/04/15 10:55:08;;;;;;;5.95;5.07;;;16.00;99.90;;;;;;5051039;28;20475;-74
2022/04/15 10:57:37;;;;;;;7.45;6.05;;;15.60;99.90;;;;;;5051301;28;20033;-75
2022/04/15 11:03:00;;;;;;;7.43;6.10;;;15.10;99.90;;;;;;5051469;28;20028;-74
2022/04/15 11:05:33;;;;;;;6.15;5.32;;;15.60;99.90;;;;;;5051203;28;20437;-74
2022/04/15 11:08:04;;;;;;;8.85;6.35;;;15.60;99.90;;;;;;5051141;28;20036;-74
2022/04/15 11:10:42;;;;;;;8.32;5.82;;;15.70;99.90;;;;;;5050948;28;20036;-74
2022/04/15 11:13:09;;;;;;;7.13;5.32;;;15.90;99.90;;;;;;5051114;28;20029;-76
2022/04/15 11:15:57;;;;;;;6.40;5.00;;;15.80;99.90;;;;;;5051847;28;20376;-74
2022/04/15 11:18:23;;;;;;;7.00;5.70;;;15.40;99.90;;;;;;5040169;28;20043;-74
2022/04/15 11:20:49;;;;;;;6.80;4.80;;;15.40;99.90;;;;;;5053161;28;20029;-74
2022/04/15 11:23:15;;;;;;;7.63;5.03;;;15.20;99.90;;;;;;5054616;28;20033;-74
2022/04/15 11:25:42;;;;;;;8.10;5.43;;;15.00;99.90;;;;;;5054546;28;20117;-74
2022/04/15 11:28:08;;;;;;;7.88;5.57;;;15.40;99.90;;;;;;5041213;28;20060;-74
2022/04/15 11:30:34;;;;;;;7.40;4.95;;;16.00;99.90;;;;;;5054369;28;20029;-73
2022/04/15 11:33:04;;;;;;;6.35;4.65;;;16.40;99.90;;;;;;5054527;28;20029;-74
2022/04/15 11:35:35;;;;;;;6.38;4.15;;;15.60;99.90;;;;;;5054356;28;20056;-74
2022/04/15 11:38:13;;;;;;;7.15;5.30;;;15.70;99.90;;;;;;5053394;28;20425;-74
2022/04/15 11:40:43;;;;;;;7.68;4.93;;;15.80;99.90;;;;;;5054210;28;20025;-74
2022/04/15 11:43:09;;;;;;;6.53;5.10;;;16.20;99.90;;;;;;5054192;28;20074;-74
2022/04/15 11:45:43;;;;;;;6.72;4.60;;;16.20;99.90;;;;;;5054203;28;20502;-74
2022/04/15 11:48:18;;;;;;;5.20;4.18;;;15.90;99.90;;;;;;5054322;28;20075;-74
2022/04/15 11:50:44;;;;;;;6.00;4.45;;;16.10;99.90;;;;;;5054001;28;20036;-74
2022/04/15 11:53:10;;;;;;;5.85;4.30;;;16.30;99.90;;;;;;5056491;28;20033;-74
2022/04/15 11:55:58;;;;;;;5.75;4.10;;;16.80;99.90;;;;;;5053813;28;20108;-74
2022/04/15 11:58:30;;;;;;;4.93;4.30;;;16.30;99.90;;;;;;5054096;28;20048;-73
2022/04/15 12:00:59;;;;;;;5.53;4.35;;;16.20;99.90;;;;;;5054790;28;20079;-74
2022/04/15 12:03:26;;;;;;;4.63;3.80;;;16.20;99.90;;;;;;5055054;28;20085;-74
2022/04/15 12:05:54;;;;;;;5.20;3.80;;;16.30;99.90;;;;;;5054698;28;20060;-74
2022/04/15 12:08:21;;;;;;;4.57;3.47;;;16.30;99.90;;;;;;5053430;28;20017;-74
2022/04/15 12:10:48;;;;;;;5.43;3.60;;;16.70;99.90;;;;;;5054210;28;20036;-74
2022/04/15 12:13:14;;;;;;;6.05;4.03;;;16.20;99.90;;;;;;5053999;28;20029;-74
2022/04/15 12:15:40;;;;;;;3.53;3.05;;;16.30;99.90;;;;;;5053457;28;20040;-74
2022/04/15 12:18:06;;;;;;;4.68;3.67;;;16.20;99.90;;;;;;5053978;28;20405;-74
2022/04/15 12:20:33;;;;;;;5.05;3.13;;;17.20;99.90;;;;;;5053338;28;20089;-73
2022/04/15 12:23:00;;;;;;;4.72;3.08;;;17.80;99.90;;;;;;5052158;28;20071;-74
2022/04/15 12:25:25;;;;;;;4.55;3.03;;;18.10;99.90;;;;;;5053523;28;20056;-74
2022/04/15 12:27:53;;;;;;;6.75;3.63;;;17.30;99.90;;;;;;5052289;28;20734;-74
2022/04/15 12:30:39;;;;;;;8.02;3.50;;;17.60;99.90;;;;;;5053194;28;20079;-74